createdAt,value
2023-02-11T00:00:39.131Z,72.32
2023-02-11T00:03:42.232Z,73.72
2023-02-11T00:06:44.903Z,73.09
2023-02-11T00:09:47.518Z,73.85
2023-02-11T00:12:50.120Z,74.35
2023-02-11T00:15:55.427Z,73.68
2023-02-11T00:18:59.926Z,73.79
2023-02-11T00:22:02.766Z,73.77
2023-02-11T00:25:06.053Z,72.96
2023-02-11T00:28:09.748Z,73.51
2023-02-11T00:31:15.316Z,72.91
2023-02-11T00:34:18.111Z,72.23
2023-02-11T00:37:20.841Z,72.29
2023-02-11T00:40:23.890Z,71.87
2023-02-11T00:43:26.747Z,72.05
2023-02-11T00:46:31.224Z,72.10
2023-02-11T00:49:34.312Z,71.63
2023-02-11T00:52:37.048Z,70.93
2023-02-11T00:55:39.704Z,72.08
2023-02-11T00:58:42.480Z,71.56
2023-02-11T01:01:47.788Z,70.73
2023-02-11T01:04:50.738Z,70.82
2023-02-11T01:07:53.382Z,70.01
2023-02-11T01:10:57.870Z,70.39
2023-02-11T01:14:00.567Z,70.69
2023-02-11T01:17:06.519Z,70.08
2023-02-11T01:20:14.645Z,69.68
2023-02-11T01:23:17.321Z,70.35
2023-02-11T01:26:19.998Z,71.64
2023-02-11T01:29:23.053Z,70.68
2023-02-11T01:32:27.068Z,70.59
2023-02-11T01:35:30.002Z,71.66
2023-02-11T01:38:33.541Z,71.08
2023-02-11T01:41:55.060Z,70.40
2023-02-11T01:44:58.012Z,70.78
2023-02-11T01:48:02.647Z,72.63
2023-02-11T01:51:09.160Z,72.88
2023-02-11T01:54:33.800Z,72.60
2023-02-11T01:57:39.966Z,72.30
2023-02-11T02:00:43.657Z,72.64
2023-02-11T02:03:52.357Z,72.16
2023-02-11T02:07:03.516Z,71.24
2023-02-11T02:10:11.462Z,70.35
2023-02-11T02:13:14.826Z,70.21
2023-02-11T02:16:21.365Z,70.07
2023-02-11T02:20:01.629Z,71.47
2023-02-11T02:23:27.032Z,71.28
2023-02-11T02:26:46.874Z,72.23
2023-02-11T02:30:36.190Z,71.80
2023-02-11T02:33:50.052Z,71.52
2023-02-11T02:37:01.071Z,71.67
2023-02-11T02:40:09.254Z,70.34
2023-02-11T02:43:13.850Z,70.90
2023-02-11T02:46:19.662Z,72.12
2023-02-11T02:49:23.812Z,72.05
2023-02-11T02:52:35.401Z,71.61
2023-02-11T02:55:48.519Z,71.70
2023-02-11T02:59:29.358Z,71.55
2023-02-11T03:02:37.203Z,71.85
2023-02-11T03:05:51.491Z,72.06
2023-02-11T03:08:59.682Z,72.35
2023-02-11T03:12:04.495Z,72.76
2023-02-11T03:15:08.353Z,72.60
2023-02-11T03:18:31.335Z,72.85
2023-02-11T03:21:37.884Z,72.71
2023-02-11T03:24:41.843Z,73.06
2023-02-11T03:27:55.797Z,74.44
2023-02-11T03:31:09.873Z,73.89
2023-02-11T03:34:16.195Z,73.99
2023-02-11T03:37:27.954Z,74.55
2023-02-11T03:40:35.325Z,75.59
2023-02-11T03:43:42.311Z,75.19
2023-02-11T03:46:49.096Z,75.32
2023-02-11T03:49:54.680Z,76.14
2023-02-11T03:53:01.413Z,75.61
2023-02-11T03:56:09.068Z,75.09
2023-02-11T03:59:11.757Z,76.17
2023-02-11T04:02:14.445Z,75.66
2023-02-11T04:05:17.079Z,75.31
2023-02-11T04:08:21.232Z,74.82
2023-02-11T04:11:23.947Z,75.05
2023-02-11T04:14:26.630Z,75.31
2023-02-11T04:17:29.572Z,75.29
2023-02-11T04:20:32.234Z,75.18
2023-02-11T04:23:36.346Z,75.26
2023-02-11T04:26:38.960Z,75.45
2023-02-11T04:29:41.731Z,75.67
2023-02-11T04:32:44.426Z,76.84
2023-02-11T04:35:47.223Z,75.72
2023-02-11T04:38:51.432Z,75.85
2023-02-11T04:41:54.037Z,75.02
2023-02-11T04:44:56.680Z,75.54
2023-02-11T04:47:59.411Z,74.95
2023-02-11T04:51:02.705Z,75.21
2023-02-11T04:54:06.916Z,76.20
2023-02-11T04:57:09.674Z,75.57
2023-02-11T05:00:13.465Z,75.67
2023-02-11T05:03:17.483Z,75.35
2023-02-11T05:06:20.144Z,76.36
2023-02-11T05:09:24.556Z,76.10
2023-02-11T05:12:27.231Z,77.13
2023-02-11T05:15:29.948Z,77.77
2023-02-11T05:18:32.524Z,77.66
2023-02-11T05:21:35.425Z,75.85
2023-02-11T05:24:39.751Z,75.40
2023-02-11T05:27:42.477Z,75.68
2023-02-11T05:30:45.146Z,76.15
2023-02-11T05:33:47.862Z,75.99
2023-02-11T05:36:50.513Z,75.84
2023-02-11T05:39:54.825Z,75.19
2023-02-11T05:42:57.551Z,76.19
2023-02-11T05:46:00.282Z,75.57
2023-02-11T05:49:03.344Z,76.25
2023-02-11T05:52:06.071Z,75.57
2023-02-11T05:55:10.223Z,75.71
2023-02-11T05:58:13.694Z,75.99
2023-02-11T06:01:16.720Z,75.51
2023-02-11T06:04:19.535Z,76.18
2023-02-11T06:07:22.355Z,75.30
2023-02-11T06:10:26.788Z,75.06
2023-02-11T06:13:29.425Z,75.39
2023-02-11T06:16:32.313Z,75.45
2023-02-11T06:19:35.094Z,75.67
2023-02-11T06:22:38.155Z,75.32
2023-02-11T06:25:43.602Z,75.13
2023-02-11T06:28:46.803Z,74.90
2023-02-11T06:31:49.432Z,74.74
2023-02-11T06:34:52.065Z,74.04
2023-02-11T06:37:54.834Z,74.62
2023-02-11T06:40:58.877Z,73.44
2023-02-11T06:44:01.555Z,72.24
2023-02-11T06:47:04.341Z,71.01
2023-02-11T06:50:08.899Z,69.88
2023-02-11T06:53:11.562Z,70.60
2023-02-11T06:56:17.393Z,70.46
2023-02-11T06:59:20.818Z,70.44
2023-02-11T07:02:23.470Z,69.73
2023-02-11T07:05:26.369Z,69.75
2023-02-11T07:08:29.378Z,69.01
2023-02-11T07:11:33.940Z,69.07
2023-02-11T07:14:36.620Z,68.40
2023-02-11T07:17:39.258Z,68.37
2023-02-11T07:20:42.112Z,67.02
2023-02-11T07:23:45.973Z,67.10
2023-02-11T07:26:50.457Z,66.59
2023-02-11T07:29:53.169Z,66.32
2023-02-11T07:32:56.555Z,65.83
2023-02-11T07:36:00.448Z,64.95
2023-02-11T07:39:04.315Z,62.72
2023-02-11T07:42:08.589Z,61.89
2023-02-11T07:45:12.681Z,60.74
2023-02-11T07:48:15.340Z,58.63
2023-02-11T07:51:20.466Z,58.38
2023-02-11T07:54:23.354Z,57.68
2023-02-11T07:57:27.498Z,57.35
2023-02-11T08:00:30.284Z,55.95
2023-02-11T08:03:33.782Z,55.37
2023-02-11T08:06:41.431Z,54.44
2023-02-11T08:09:44.947Z,55.11
2023-02-11T08:12:49.467Z,54.40
2023-02-11T08:15:52.351Z,53.89
2023-02-11T08:18:57.698Z,52.79
2023-02-11T08:22:01.439Z,51.76
2023-02-11T08:25:04.496Z,50.40
2023-02-11T08:28:09.287Z,51.04
2023-02-11T08:31:14.342Z,51.03
2023-02-11T08:34:20.276Z,50.93
2023-02-11T08:37:23.102Z,49.56
2023-02-11T08:40:25.970Z,49.70
2023-02-11T08:43:30.311Z,49.16
2023-02-11T08:46:33.119Z,47.55
2023-02-11T08:49:36.509Z,47.28
2023-02-11T08:52:39.366Z,45.49
2023-02-11T08:55:48.847Z,44.86
2023-02-11T08:58:53.659Z,44.78
2023-02-11T09:01:57.226Z,44.96
2023-02-11T09:04:59.949Z,42.94
2023-02-11T09:08:02.641Z,45.57
2023-02-11T09:11:05.931Z,44.12
2023-02-11T09:14:16.712Z,46.29
2023-02-11T09:17:19.530Z,47.12
2023-02-11T09:20:22.296Z,46.90
2023-02-11T09:23:25.273Z,45.92
2023-02-11T09:26:30.578Z,45.51
2023-02-11T09:29:35.383Z,45.30
2023-02-11T09:32:38.074Z,45.43
2023-02-11T09:35:40.768Z,46.06
2023-02-11T09:38:44.159Z,43.64
2023-02-11T09:42:05.738Z,42.92
2023-02-11T09:45:17.484Z,43.44
2023-02-11T09:48:22.606Z,43.01
2023-02-11T09:51:36.468Z,42.82
2023-02-11T09:54:52.724Z,44.12
2023-02-11T09:57:56.237Z,43.16
2023-02-11T10:01:08.552Z,44.49
2023-02-11T10:04:17.693Z,44.78
2023-02-11T10:07:27.492Z,44.80
2023-02-11T10:10:43.935Z,43.46
2023-02-11T10:13:55.414Z,44.89
2023-02-11T10:17:12.787Z,43.13
2023-02-11T10:20:26.291Z,42.86
2023-02-11T10:23:34.974Z,41.42
2023-02-11T10:26:39.893Z,40.15
2023-02-11T10:29:48.215Z,39.53
2023-02-11T10:32:57.183Z,38.42
2023-02-11T10:36:00.191Z,37.64
2023-02-11T10:39:11.663Z,39.20
2023-02-11T10:42:15.883Z,39.18
2023-02-11T10:45:25.246Z,38.41
2023-02-11T10:48:44.420Z,38.78
2023-02-11T10:51:47.347Z,38.16
2023-02-11T10:55:02.236Z,39.53
2023-02-11T10:58:05.053Z,39.22
2023-02-11T11:01:23.416Z,40.15
2023-02-11T11:04:41.075Z,38.85
2023-02-11T11:07:54.299Z,35.96
2023-02-11T11:11:04.075Z,35.82
2023-02-11T11:14:19.570Z,36.06
2023-02-11T11:17:22.547Z,37.34
2023-02-11T11:20:29.407Z,38.53
2023-02-11T11:23:34.712Z,39.42
2023-02-11T11:26:42.505Z,40.34
2023-02-11T11:29:49.285Z,38.96
2023-02-11T11:32:52.378Z,37.19
2023-02-11T11:36:00.952Z,35.74
2023-02-11T11:39:18.730Z,34.40
2023-02-11T11:42:26.181Z,32.89
2023-02-11T11:45:28.865Z,32.26
2023-02-11T11:48:35.183Z,31.48
2023-02-11T11:51:42.134Z,31.34
2023-02-11T11:54:53.604Z,31.61
2023-02-11T11:57:56.321Z,30.44
2023-02-11T12:01:15.115Z,30.81
2023-02-11T12:04:36.833Z,30.13
2023-02-11T12:07:52.698Z,29.93
2023-02-11T12:11:09.130Z,31.76
2023-02-11T12:14:20.546Z,33.10
2023-02-11T12:17:36.694Z,34.68
2023-02-11T12:20:53.865Z,35.70
2023-02-11T12:24:10.329Z,36.10
2023-02-11T12:27:18.414Z,36.97
2023-02-11T12:30:49.160Z,35.87
2023-02-11T12:34:14.245Z,35.75
2023-02-11T12:37:33.224Z,37.02
2023-02-11T12:40:46.831Z,37.22
2023-02-11T12:43:50.555Z,37.64
2023-02-11T12:47:03.071Z,36.71
2023-02-11T12:50:17.406Z,35.91
2023-02-11T12:53:39.517Z,35.91
2023-02-11T12:56:48.668Z,37.09
2023-02-11T12:59:58.999Z,38.28
2023-02-11T13:03:11.074Z,39.30
2023-02-11T13:06:17.835Z,39.29
2023-02-11T13:09:25.343Z,40.14
2023-02-11T13:12:51.082Z,40.18
2023-02-11T13:15:58.673Z,40.26
2023-02-11T13:19:14.028Z,40.55
2023-02-11T13:22:19.781Z,40.04
2023-02-11T13:25:31.529Z,39.33
2023-02-11T13:28:45.216Z,39.20
2023-02-11T13:31:54.697Z,37.89
2023-02-11T13:34:58.431Z,36.95
2023-02-11T13:38:03.393Z,36.91
2023-02-11T13:41:18.367Z,36.36
2023-02-11T13:44:26.624Z,36.64
2023-02-11T13:47:33.084Z,35.68
2023-02-11T13:50:39.764Z,35.23
2023-02-11T13:53:47.388Z,33.30
2023-02-11T13:57:26.324Z,34.23
2023-02-11T14:00:50.378Z,34.38
2023-02-11T14:04:39.420Z,34.48
2023-02-11T14:08:32.331Z,33.47
2023-02-11T14:11:49.066Z,32.30
2023-02-11T14:15:13.924Z,32.26
2023-02-11T14:18:57.318Z,32.87
2023-02-11T14:22:03.179Z,32.64
2023-02-11T14:25:18.340Z,34.03
2023-02-11T14:28:44.802Z,34.37
2023-02-11T14:31:57.652Z,34.90
2023-02-11T14:35:10.162Z,35.23
2023-02-11T14:38:23.119Z,35.17
2023-02-11T14:41:29.474Z,35.09
2023-02-11T14:44:34.230Z,34.64
2023-02-11T14:47:44.731Z,36.82
2023-02-11T14:50:52.994Z,37.04
2023-02-11T14:54:01.036Z,38.14
2023-02-11T14:57:09.309Z,37.71
2023-02-11T15:00:18.180Z,37.55
2023-02-11T15:03:32.863Z,38.85
2023-02-11T15:06:40.018Z,38.94
2023-02-11T15:09:46.468Z,40.42
2023-02-11T15:12:50.000Z,42.25
2023-02-11T15:15:57.856Z,43.32
2023-02-11T15:19:05.122Z,43.99
2023-02-11T15:22:20.147Z,44.21
2023-02-11T15:25:24.053Z,44.66
2023-02-11T15:28:29.127Z,44.79
2023-02-11T15:31:35.089Z,45.76
2023-02-11T15:34:39.238Z,46.36
2023-02-11T15:37:44.338Z,47.00
2023-02-11T15:40:56.703Z,47.83
2023-02-11T15:43:59.581Z,48.26
2023-02-11T15:47:02.439Z,48.78
2023-02-11T15:50:06.566Z,49.18
2023-02-11T15:53:25.424Z,50.18
2023-02-11T15:56:32.908Z,50.83
2023-02-11T15:59:38.389Z,51.53
2023-02-11T16:02:45.226Z,51.15
2023-02-11T16:05:49.494Z,51.86
2023-02-11T16:09:02.897Z,52.15
2023-02-11T16:12:23.456Z,53.28
2023-02-11T16:15:41.444Z,53.68
2023-02-11T16:19:02.110Z,54.52
2023-02-11T16:22:10.528Z,54.29
2023-02-11T16:25:20.206Z,54.31
2023-02-11T16:28:23.384Z,55.11
2023-02-11T16:31:33.206Z,54.50
2023-02-11T16:34:36.717Z,54.01
2023-02-11T16:37:39.571Z,54.59
2023-02-11T16:40:46.079Z,54.47
2023-02-11T16:43:49.062Z,54.47
2023-02-11T16:46:53.096Z,54.65
2023-02-11T16:49:57.504Z,54.61
2023-02-11T16:53:02.170Z,54.59
2023-02-11T16:56:06.867Z,55.92
2023-02-11T16:59:10.115Z,55.68
2023-02-11T17:02:15.720Z,55.69
2023-02-11T17:05:22.904Z,55.65
2023-02-11T17:08:25.837Z,55.37
2023-02-11T17:11:30.163Z,55.54
2023-02-11T17:14:33.236Z,55.60
2023-02-11T17:17:36.086Z,55.68
2023-02-11T17:20:39.019Z,56.24
2023-02-11T17:23:43.292Z,55.67
2023-02-11T17:26:48.046Z,55.94
2023-02-11T17:29:50.956Z,55.89
2023-02-11T17:32:53.867Z,55.66
2023-02-11T17:35:57.742Z,55.59
2023-02-11T17:39:01.192Z,55.00
2023-02-11T17:42:06.444Z,55.19
2023-02-11T17:45:10.133Z,55.11
2023-02-11T17:48:13.057Z,55.30
2023-02-11T17:51:23.898Z,55.02
2023-02-11T17:54:26.907Z,54.82
2023-02-11T17:57:31.287Z,55.05
2023-02-11T18:00:34.284Z,54.95
2023-02-11T18:03:37.558Z,55.18
2023-02-11T18:06:41.449Z,55.22
2023-02-11T18:09:45.149Z,55.88
2023-02-11T18:12:49.411Z,55.87
2023-02-11T18:15:52.938Z,55.71
2023-02-11T18:18:56.937Z,56.24
2023-02-11T18:22:01.187Z,56.57
2023-02-11T18:25:05.061Z,56.67
2023-02-11T18:28:09.417Z,56.76
2023-02-11T18:31:12.574Z,56.75
2023-02-11T18:34:17.008Z,57.04
2023-02-11T18:37:19.996Z,56.65
2023-02-11T18:40:22.912Z,56.00
2023-02-11T18:43:31.583Z,55.28
2023-02-11T18:46:34.404Z,55.64
2023-02-11T18:49:37.477Z,55.31
2023-02-11T18:52:40.467Z,55.36
2023-02-11T18:55:45.489Z,55.84
2023-02-11T18:58:51.390Z,56.20
2023-02-11T19:01:55.602Z,56.29
2023-02-11T19:04:58.616Z,55.94
2023-02-11T19:08:01.530Z,56.41
2023-02-11T19:11:05.060Z,56.97
2023-02-11T19:14:10.418Z,56.33
2023-02-11T19:17:13.496Z,56.66
2023-02-11T19:20:16.854Z,57.40
2023-02-11T19:23:19.811Z,56.44
2023-02-11T19:26:24.205Z,56.82
2023-02-11T19:29:29.372Z,56.64
2023-02-11T19:32:32.517Z,56.93
2023-02-11T19:35:35.696Z,56.80
2023-02-11T19:38:39.046Z,56.38
2023-02-11T19:41:43.278Z,57.04
2023-02-11T19:44:47.720Z,56.01
2023-02-11T19:47:55.478Z,56.64
2023-02-11T19:50:58.839Z,56.09
2023-02-11T19:54:01.994Z,56.70
2023-02-11T19:57:04.677Z,55.96
2023-02-11T20:00:11.184Z,55.55
2023-02-11T20:03:17.109Z,55.42
2023-02-11T20:06:23.508Z,55.97
2023-02-11T20:09:29.006Z,55.84
2023-02-11T20:12:31.926Z,56.23
2023-02-11T20:15:36.750Z,56.01
2023-02-11T20:18:40.382Z,56.40
2023-02-11T20:21:46.606Z,55.44
2023-02-11T20:24:49.881Z,55.94
2023-02-11T20:27:52.947Z,56.30
2023-02-11T20:30:58.032Z,55.93
2023-02-11T20:34:01.833Z,57.15
2023-02-11T20:37:06.029Z,56.08
2023-02-11T20:40:09.653Z,55.96
2023-02-11T20:43:21.028Z,55.78
2023-02-11T20:46:27.792Z,56.33
2023-02-11T20:49:30.805Z,55.84
2023-02-11T20:52:34.321Z,55.25
2023-02-11T20:55:38.525Z,56.81
2023-02-11T20:58:41.856Z,55.96
2023-02-11T21:01:48.331Z,55.96
2023-02-11T21:04:51.235Z,56.02
2023-02-11T21:07:54.275Z,55.79
2023-02-11T21:10:57.330Z,55.82
2023-02-11T21:14:02.403Z,55.64
2023-02-11T21:17:07.536Z,56.28
2023-02-11T21:20:10.943Z,56.00
2023-02-11T21:23:13.875Z,56.48
2023-02-11T21:26:17.215Z,55.25
2023-02-11T21:29:20.150Z,55.11
2023-02-11T21:32:24.467Z,54.76
2023-02-11T21:35:27.419Z,54.60
2023-02-11T21:38:31.113Z,54.64
2023-02-11T21:41:34.868Z,54.98
2023-02-11T21:44:38.093Z,54.27
2023-02-11T21:47:42.102Z,54.63
2023-02-11T21:50:46.687Z,54.86
2023-02-11T21:53:53.838Z,54.92
2023-02-11T21:56:57.364Z,55.10
2023-02-11T22:00:00.282Z,55.34
2023-02-11T22:03:04.540Z,56.59
2023-02-11T22:06:09.557Z,57.36
2023-02-11T22:09:12.472Z,57.02
2023-02-11T22:12:15.197Z,57.77
2023-02-11T22:15:18.133Z,57.42
2023-02-11T22:18:22.529Z,57.40
2023-02-11T22:21:25.397Z,56.31
2023-02-11T22:24:29.649Z,55.55
2023-02-11T22:27:32.262Z,56.27
2023-02-11T22:30:35.254Z,57.39
2023-02-11T22:33:39.662Z,56.42
2023-02-11T22:36:42.379Z,56.02
2023-02-11T22:39:45.159Z,57.34
2023-02-11T22:42:47.975Z,57.15
2023-02-11T22:45:52.190Z,56.97
2023-02-11T22:48:56.761Z,57.43
2023-02-11T22:52:00.044Z,57.01
2023-02-11T22:55:02.701Z,56.64
2023-02-11T22:58:05.509Z,56.86
2023-02-11T23:01:08.273Z,59.45
2023-02-11T23:04:14.565Z,58.31
2023-02-11T23:07:17.404Z,59.02
2023-02-11T23:10:20.309Z,59.26
2023-02-11T23:13:23.121Z,59.92
2023-02-11T23:16:28.121Z,59.75
2023-02-11T23:19:32.359Z,59.35
2023-02-11T23:22:35.382Z,58.97
2023-02-11T23:25:42.680Z,60.00
2023-02-11T23:28:46.120Z,59.96
2023-02-11T23:31:49.845Z,60.04
2023-02-11T23:34:54.925Z,60.28
2023-02-11T23:37:57.555Z,61.15
2023-02-11T23:41:00.209Z,60.88
2023-02-11T23:44:04.183Z,60.82
2023-02-11T23:47:07.073Z,60.87
2023-02-11T23:50:12.142Z,61.88
2023-02-11T23:53:15.230Z,62.47
2023-02-11T23:56:20.489Z,61.57
2023-02-11T23:59:23.247Z,60.41
